Time;durP1;ratioP1;P1;durP2;ratioP2;P2;SDS_P1;SDS_P2;PMS_P1;PMS_P2;Temp;Humidity;BMP_temperature;BMP_pressure;BME280_temperature;BME280_humidity;BME280_pressure;Samples;Min_cycle;Max_cycle;Signal;HPM_P1;HPM_P2
2023/12/14 00:01:33;;;;;;;;;;;12.50;50.90;;;12.67;53.87;99774.72;5052006;28;19925;-35
2023/12/14 00:04:02;;;;;;;;;;;12.50;50.90;;;12.71;53.55;99781.84;5051577;28;19929;-34
2023/12/14 00:06:30;;;;;;;;;;;12.50;50.80;;;12.72;54.13;99783.66;5051183;28;19932;-35
2023/12/14 00:08:58;;;;;;;;;;;12.60;50.90;;;12.70;53.63;99785.13;5051657;28;19929;-35
2023/12/14 00:11:26;;;;;;;;;;;12.50;50.80;;;12.74;54.14;99797.28;5053191;28;19978;-35
2023/12/14 00:13:55;;;;;;;;;;;12.50;50.70;;;12.74;53.19;99792.25;5055414;28;19972;-35
2023/12/14 00:16:23;;;;;;;;;;;12.60;50.80;;;12.77;53.60;99802.63;5055283;28;19925;-35
2023/12/14 00:18:51;;;;;;;;;;;12.60;50.70;;;12.77;53.63;99802.63;5054945;28;20360;-36
2023/12/14 00:21:19;;;;;;;;;;;12.60;50.70;;;12.80;53.24;99808.00;5055121;28;20296;-35
2023/12/14 00:23:47;;;;;;;;;;;12.60;50.60;;;12.82;53.94;99821.63;5055654;28;19929;-35
2023/12/14 00:26:17;;;;;;;;;;;12.60;50.70;;;12.83;53.17;99810.84;5054926;28;19925;-36
2023/12/14 00:28:45;;;;;;;;;;;12.60;50.60;;;12.78;53.35;99809.44;5055539;28;20358;-35
2023/12/14 00:31:14;;;;;;;;;;;12.60;50.60;;;12.82;54.08;99810.69;5055166;28;19979;-35
2023/12/14 00:33:42;;;;;;;;;;;12.60;50.60;;;12.84;53.34;99830.19;5055464;28;20019;-36
2023/12/14 00:36:10;;;;;;;;;;;12.60;50.50;;;12.85;52.72;99831.09;5055371;28;19967;-35
2023/12/14 00:38:39;;;;;;;;;;;12.60;50.50;;;12.82;53.88;99836.72;5055550;28;20019;-35
2023/12/14 00:41:07;;;;;;;;;;;12.60;50.50;;;12.86;53.49;99833.78;5055653;28;19964;-35
2023/12/14 00:43:36;;;;;;;;;;;12.70;50.50;;;12.84;53.76;99840.25;5055319;28;19925;-35
2023/12/14 00:46:04;;;;;;;;;;;12.70;50.60;;;12.84;53.40;99845.28;5054504;28;20471;-35
2023/12/14 00:48:33;;;;;;;;;;;12.70;50.50;;;12.83;53.18;99843.53;5056712;28;19929;-35
2023/12/14 00:51:01;;;;;;;;;;;12.60;50.50;;;12.82;53.08;99855.94;5055662;28;20442;-36
2023/12/14 00:53:29;;;;;;;;;;;12.60;50.50;;;12.80;54.15;99855.75;5055627;28;20299;-35
2023/12/14 00:55:57;;;;;;;;;;;12.60;50.50;;;12.79;53.73;99864.00;5055198;28;20000;-36
2023/12/14 00:58:25;;;;;;;;;;;12.60;50.60;;;12.78;53.60;99868.88;5054736;28;19983;-36
2023/12/14 01:00:54;;;;;;;;;;;12.60;50.60;;;12.77;53.88;99874.66;5055316;28;19967;-34
2023/12/14 01:03:22;;;;;;;;;;;12.60;50.70;;;12.76;53.84;99886.31;5055822;28;19925;-36
2023/12/14 01:05:52;;;;;;;;;;;12.60;50.70;;;12.73;54.09;99885.97;5054375;28;20433;-35
2023/12/14 01:08:20;;;;;;;;;;;12.50;50.70;;;12.74;53.76;99896.94;5055674;28;19932;-35
2023/12/14 01:10:47;;;;;;;;;;;12.50;50.70;;;12.73;54.48;99896.03;5054773;28;19929;-35
2023/12/14 01:13:15;;;;;;;;;;;12.50;50.80;;;12.71;54.13;99901.63;5055136;28;20419;-36
2023/12/14 01:15:43;;;;;;;;;;;12.50;50.80;;;12.70;54.59;99910.78;5054762;28;19925;-36
2023/12/14 01:18:12;;;;;;;;;;;12.50;50.80;;;12.65;54.04;99911.88;5047712;28;19994;-35
2023/12/14 01:20:41;;;;;;;;;;;12.50;50.90;;;12.65;53.68;99911.88;5055921;28;19925;-35
2023/12/14 01:23:10;;;;;;;;;;;12.50;50.80;;;12.67;54.06;99915.47;5056385;28;19924;-36
2023/12/14 01:25:39;;;;;;;;;;;12.50;50.90;;;12.66;53.57;99923.72;5060041;28;19935;-37
2023/12/14 01:28:08;;;;;;;;;;;12.50;50.90;;;12.65;54.46;99921.94;5062042;28;19933;-34
2023/12/14 01:30:36;;;;;;;;;;;12.50;50.90;;;12.64;54.42;99925.19;5060249;28;19970;-36
2023/12/14 01:33:04;;;;;;;;;;;12.50;50.90;;;12.61;53.78;99913.91;5055959;28;19972;-34
2023/12/14 01:35:33;;;;;;;;;;;12.50;50.90;;;12.63;53.53;99925.91;5055518;28;19924;-35
2023/12/14 01:38:01;;;;;;;;;;;12.50;50.90;;;12.63;54.36;99935.06;5055995;28;19983;-35
2023/12/14 01:40:30;;;;;;;;;;;12.40;50.90;;;12.62;54.21;99931.66;5054784;28;19933;-35
2023/12/14 01:43:07;;;;;;;;;;;12.50;51.00;;;12.60;53.40;99938.13;5055124;28;19947;-36
2023/12/14 01:45:35;;;;;;;;;;;12.50;51.00;;;12.61;54.11;99944.06;5054357;28;19925;-35
2023/12/14 01:48:03;;;;;;;;;;;12.40;50.90;;;12.60;54.48;99948.19;5054965;28;19971;-35
2023/12/14 01:50:31;;;;;;;;;;;12.50;51.00;;;12.61;53.77;99949.97;5054384;28;19925;-35
2023/12/14 01:52:59;;;;;;;;;;;12.50;51.00;;;12.61;54.21;99965.06;5053844;28;20311;-36
2023/12/14 01:55:27;;;;;;;;;;;12.50;51.00;;;12.60;54.38;99968.28;5053517;28;19931;-36
2023/12/14 01:57:57;;;;;;;;;;;12.40;50.90;;;12.60;54.23;99968.28;5053594;28;19924;-35
2023/12/14 02:00:29;;;;;;;;;;;12.40;50.90;;;12.62;53.95;99966.84;5054015;28;19931;-35
2023/12/14 02:02:57;;;;;;;;;;;12.50;51.00;;;12.64;54.11;99990.53;5053794;28;20315;-35
2023/12/14 02:05:25;;;;;;;;;;;12.40;50.90;;;12.62;54.19;99981.94;5053432;28;19932;-37
2023/12/14 02:07:53;;;;;;;;;;;12.40;50.80;;;12.66;54.01;99989.06;5054237;28;20356;-37
2023/12/14 02:10:21;;;;;;;;;;;12.50;50.80;;;12.64;53.56;99985.50;5054438;28;19950;-35
2023/12/14 02:12:49;;;;;;;;;;;12.50;50.80;;;12.66;53.10;99994.09;5053357;28;20015;-34
2023/12/14 02:15:18;;;;;;;;;;;12.50;50.80;;;12.70;53.93;100006.31;5053508;28;20034;-36
2023/12/14 02:17:46;;;;;;;;;;;12.50;50.70;;;12.71;53.81;100017.25;5054119;28;20014;-39
2023/12/14 02:20:14;;;;;;;;;;;12.50;50.70;;;12.72;53.66;100024.94;5054820;28;19925;-35
2023/12/14 02:22:52;;;;;;;;;;;12.50;50.70;;;12.72;53.65;100029.97;5053636;28;19930;-35
2023/12/14 02:25:21;;;;;;;;;;;12.50;50.60;;;12.73;53.75;100026.72;5053002;28;20011;-36
2023/12/14 02:27:49;;;;;;;;;;;12.50;50.60;;;12.75;53.97;100034.44;5053330;28;20315;-35
2023/12/14 02:30:17;;;;;;;;;;;12.60;50.70;;;12.77;53.25;100038.03;5045664;28;20015;-37
2023/12/14 02:32:45;;;;;;;;;;;12.50;50.60;;;12.77;53.56;100038.91;5054832;28;19992;-36
2023/12/14 02:35:13;;;;;;;;;;;12.60;50.60;;;12.78;53.61;100050.75;5052626;28;19956;-36
2023/12/14 02:37:41;;;;;;;;;;;12.60;50.60;;;12.78;53.30;100044.84;5053466;28;20385;-36
2023/12/14 02:40:11;;;;;;;;;;;12.60;50.60;;;12.79;53.06;100057.56;5053313;28;19924;-36
2023/12/14 02:42:39;;;;;;;;;;;12.50;50.50;;;12.77;52.64;100061.53;5053609;28;19931;-34
2023/12/14 02:45:08;;;;;;;;;;;12.50;50.50;;;12.76;53.28;100062.28;5052787;28;19929;-35
2023/12/14 02:47:36;;;;;;;;;;;12.50;50.50;;;12.76;54.00;100077.38;5053724;28;19992;-35
2023/12/14 02:50:05;;;;;;;;;;;12.50;50.50;;;12.75;52.78;100069.66;5055052;28;20015;-34
2023/12/14 02:52:33;;;;;;;;;;;12.60;50.60;;;12.75;53.38;100084.72;5054995;28;20339;-34
2023/12/14 02:55:01;;;;;;;;;;;12.50;50.50;;;12.73;53.36;100082.03;5055701;28;19933;-37
2023/12/14 02:57:30;;;;;;;;;;;12.50;50.50;;;12.70;52.84;100085.84;5054977;28;20023;-35
2023/12/14 02:59:58;;;;;;;;;;;12.50;50.50;;;12.73;53.45;100097.13;5055337;28;20015;-36
2023/12/14 03:02:26;;;;;;;;;;;12.50;50.50;;;12.71;53.64;100097.69;5052955;28;19925;-36
2023/12/14 03:04:54;;;;;;;;;;;12.50;50.50;;;12.69;53.47;100105.06;5052403;28;19975;-34
2023/12/14 03:07:22;;;;;;;;;;;12.50;50.60;;;12.69;53.79;100115.09;5052910;28;19925;-36
2023/12/14 03:09:50;;;;;;;;;;;12.50;50.60;;;12.68;53.42;100118.34;5052718;28;19925;-35
2023/12/14 03:12:18;;;;;;;;;;;12.50;50.60;;;12.62;53.79;100115.13;5052252;28;20008;-36
2023/12/14 03:14:47;;;;;;;;;;;12.50;50.60;;;12.67;53.43;100126.59;5052379;28;19960;-35
2023/12/14 03:17:16;;;;;;;;;;;12.50;50.60;;;12.66;53.57;100118.88;5052387;28;19931;-36
2023/12/14 03:19:44;;;;;;;;;;;12.50;50.60;;;12.59;53.75;100112.25;5052603;28;19924;-36
2023/12/14 03:22:12;;;;;;;;;;;12.60;50.70;;;12.64;53.90;100131.28;5052224;28;19929;-35
2023/12/14 03:24:40;;;;;;;;;;;12.50;50.70;;;12.63;53.73;100124.47;5051953;28;20177;-36
2023/12/14 03:27:08;;;;;;;;;;;12.50;50.70;;;12.62;53.60;100127.69;5052754;28;20015;-36
2023/12/14 03:29:36;;;;;;;;;;;12.40;50.60;;;12.61;54.49;100135.06;5052472;28;19925;-35
2023/12/14 03:32:06;;;;;;;;;;;12.50;50.70;;;12.59;53.37;100132.34;5052492;28;19931;-36
2023/12/14 03:34:34;;;;;;;;;;;12.40;50.70;;;12.57;54.03;100133.81;5052019;28;19931;-36
2023/12/14 03:37:02;;;;;;;;;;;12.40;50.70;;;12.57;54.02;100138.84;5052452;28;20383;-36
2023/12/14 03:39:30;;;;;;;;;;;12.40;50.70;;;12.54;54.30;100133.47;5052987;28;19956;-33
2023/12/14 03:41:58;;;;;;;;;;;12.40;50.80;;;12.55;54.13;100137.78;5052501;28;19925;-32
2023/12/14 03:44:25;;;;;;;;;;;12.40;50.80;;;12.55;53.66;100145.31;5053372;28;20438;-37
2023/12/14 03:46:54;;;;;;;;;;;12.40;50.80;;;12.55;53.87;100149.44;5057038;28;19925;-41
2023/12/14 03:49:23;;;;;;;;;;;12.40;50.80;;;12.54;54.13;100158.59;5058202;28;19951;-34
2023/12/14 03:51:51;;;;;;;;;;;12.40;50.80;;;12.53;53.25;100160.91;5056991;28;19931;-33
2023/12/14 03:54:19;;;;;;;;;;;12.40;50.80;;;12.52;53.62;100165.03;5049212;28;19925;-35
2023/12/14 03:56:47;;;;;;;;;;;12.40;50.80;;;12.56;53.50;100172.25;5056882;28;19929;-36
2023/12/14 03:59:15;;;;;;;;;;;12.40;50.80;;;12.54;53.64;100173.66;5056763;28;20376;-35
2023/12/14 04:01:43;;;;;;;;;;;12.40;50.80;;;12.54;53.97;100178.69;5057146;28;19929;-35
2023/12/14 04:04:11;;;;;;;;;;;12.40;50.70;;;12.50;53.94;100171.53;5055976;28;19936;-35
2023/12/14 04:06:40;;;;;;;;;;;12.40;50.70;;;12.60;53.91;100193.56;5056434;28;20027;-36
2023/12/14 04:09:08;;;;;;;;;;;12.40;50.70;;;12.60;53.66;100194.47;5056998;28;19925;-34
2023/12/14 04:11:36;;;;;;;;;;;12.40;50.60;;;12.59;54.32;100192.66;5057330;28;19925;-33
2023/12/14 04:14:04;;;;;;;;;;;12.40;50.60;;;12.64;53.81;100206.69;5057013;28;19975;-34
2023/12/14 04:16:32;;;;;;;;;;;12.40;50.60;;;12.65;53.69;100210.97;5060920;28;20454;-35
2023/12/14 04:19:00;;;;;;;;;;;12.50;50.60;;;12.66;52.92;100210.25;5065577;28;19974;-34
2023/12/14 04:21:28;;;;;;;;;;;12.40;50.40;;;12.64;53.52;100214.22;5065241;28;20011;-35
2023/12/14 04:23:57;;;;;;;;;;;12.50;50.50;;;12.67;53.28;100222.09;5064565;28;19992;-37
2023/12/14 04:26:25;;;;;;;;;;;12.50;50.50;;;12.69;53.73;100230.72;5066708;28;19975;-37
2023/12/14 04:28:53;;;;;;;;;;;12.50;51.00;;;12.69;53.20;100239.88;5069607;28;19960;-34
2023/12/14 04:31:21;;;;;;;;;;;12.50;50.40;;;12.67;53.33;100242.22;5050253;28;20347;-32
2023/12/14 04:33:49;;;;;;;;;;;12.50;50.40;;;12.63;53.48;100230.03;5052665;28;19925;-32
2023/12/14 04:36:17;;;;;;;;;;;12.50;50.40;;;12.69;53.36;100255.88;5055911;28;19929;-33
2023/12/14 04:38:46;;;;;;;;;;;12.50;50.30;;;12.71;53.14;100259.44;5057092;28;20347;-33
2023/12/14 04:41:15;;;;;;;;;;;12.50;50.30;;;12.73;53.01;100262.13;5055814;28;19924;-34
2023/12/14 04:43:43;;;;;;;;;;;12.50;50.30;;;12.69;53.13;100260.88;5056052;28;19948;-33
2023/12/14 04:46:11;;;;;;;;;;;12.50;50.30;;;12.67;53.12;100257.28;5055542;28;19925;-33
2023/12/14 04:48:39;;;;;;;;;;;12.50;50.30;;;12.69;53.43;100265.91;5055684;28;19974;-33
2023/12/14 04:51:12;;;;;;;;;;;12.50;50.30;;;12.66;53.49;100263.03;5055804;28;19952;-31
2023/12/14 04:53:40;;;;;;;;;;;12.50;50.30;;;12.69;53.63;100275.97;5055615;28;19970;-36
2023/12/14 04:56:11;;;;;;;;;;;12.50;50.30;;;12.68;53.32;100279.19;5054319;28;20020;-36
2023/12/14 04:58:40;;;;;;;;;;;12.50;50.30;;;12.68;53.14;100279.19;5056244;28;20019;-32
2023/12/14 05:01:08;;;;;;;;;;;12.50;50.30;;;12.69;53.80;100286.03;5055493;28;19956;-35
2023/12/14 05:03:37;;;;;;;;;;;12.50;50.30;;;12.68;52.86;100284.22;5055300;28;19925;-34
2023/12/14 05:06:05;;;;;;;;;;;12.50;50.20;;;12.63;53.47;100280.28;5055255;28;19925;-37
2023/12/14 05:08:33;;;;;;;;;;;12.50;50.20;;;12.66;53.48;100285.66;5055159;28;19939;-35
2023/12/14 05:11:01;;;;;;;;;;;12.50;50.20;;;12.65;53.24;100293.91;5054465;28;20074;-33
2023/12/14 05:13:29;;;;;;;;;;;12.60;50.30;;;12.65;54.04;100303.97;5054832;28;19932;-34
2023/12/14 05:15:58;;;;;;;;;;;12.50;50.20;;;12.64;53.45;100306.31;5053954;28;19924;-34
2023/12/14 05:18:26;;;;;;;;;;;12.50;50.20;;;12.63;53.11;100315.47;5054721;28;19960;-31
2023/12/14 05:20:55;;;;;;;;;;;12.50;50.20;;;12.61;53.18;100311.88;5054295;28;20293;-34
2023/12/14 05:23:24;;;;;;;;;;;12.50;50.30;;;12.61;53.15;100326.06;5054218;28;19967;-31
2023/12/14 05:25:52;;;;;;;;;;;12.50;50.30;;;12.59;53.53;100327.50;5053738;28;19925;-31
2023/12/14 05:28:20;;;;;;;;;;;12.50;50.30;;;12.58;53.38;100325.72;5054278;28;19925;-32
2023/12/14 05:30:48;;;;;;;;;;;12.40;50.30;;;12.56;52.91;100328.03;5054054;28;19947;-33
2023/12/14 05:33:17;;;;;;;;;;;12.40;50.40;;;12.56;52.84;100330.56;5054479;28;20350;-32
2023/12/14 05:35:45;;;;;;;;;;;12.40;50.40;;;12.54;53.35;100332.00;5054119;28;19936;-33
2023/12/14 05:38:13;;;;;;;;;;;12.40;50.50;;;12.53;53.33;100337.72;5059288;28;19960;-33
2023/12/14 05:40:42;;;;;;;;;;;12.30;50.40;;;12.49;53.72;100341.50;5054229;28;19932;-35
2023/12/14 05:43:10;;;;;;;;;;;12.30;50.40;;;12.51;53.22;100346.72;5054184;28;19934;-33
2023/12/14 05:45:38;;;;;;;;;;;12.30;50.40;;;12.51;53.49;100349.25;5053868;28;19925;-33
2023/12/14 05:48:06;;;;;;;;;;;12.40;50.60;;;12.51;53.93;100354.25;5054393;28;19925;-33
2023/12/14 05:50:36;;;;;;;;;;;12.30;50.40;;;12.51;53.03;100356.78;5054284;28;19933;-33
2023/12/14 05:53:04;;;;;;;;;;;12.30;50.50;;;12.52;53.75;100361.06;5054505;28;20156;-34
2023/12/14 05:55:32;;;;;;;;;;;12.30;50.50;;;12.53;53.52;100367.88;5053588;28;20004;-34
2023/12/14 05:58:00;;;;;;;;;;;12.40;50.50;;;12.54;53.41;100373.81;5054442;28;19929;-33
2023/12/14 06:00:28;;;;;;;;;;;12.40;50.50;;;12.56;53.17;100383.34;5046555;28;19925;-33
2023/12/14 06:02:56;;;;;;;;;;;12.30;50.40;;;12.57;53.48;100384.25;5054547;28;19975;-34
2023/12/14 06:05:24;;;;;;;;;;;12.30;50.40;;;12.58;53.00;100386.94;5054248;28;20335;-33
2023/12/14 06:07:53;;;;;;;;;;;12.40;50.40;;;12.56;53.23;100378.31;5054483;28;20412;-35
2023/12/14 06:10:22;;;;;;;;;;;12.40;50.40;;;12.61;53.08;100392.31;5053786;28;20028;-35
2023/12/14 06:12:50;;;;;;;;;;;12.40;50.40;;;12.62;54.19;100403.25;5054152;28;20031;-32
2023/12/14 06:15:18;;;;;;;;;;;12.40;50.30;;;12.64;53.07;100406.88;5052816;28;20003;-34
2023/12/14 06:17:45;;;;;;;;;;;12.50;50.30;;;12.65;53.49;100409.53;5053231;28;19964;-35
2023/12/14 06:20:14;;;;;;;;;;;12.50;50.30;;;12.68;53.00;100414.94;5052985;28;19924;-36
2023/12/14 06:22:42;;;;;;;;;;;12.50;50.20;;;12.67;53.03;100414.75;5052935;28;20369;-37
2023/12/14 06:25:11;;;;;;;;;;;12.50;50.20;;;12.69;52.39;100426.78;5052511;28;20307;-33
2023/12/14 06:27:40;;;;;;;;;;;12.50;50.20;;;12.69;52.91;100421.75;5052820;28;20313;-31
2023/12/14 06:30:10;;;;;;;;;;;12.50;50.10;;;12.69;52.79;100431.81;5053037;28;20418;-32
2023/12/14 06:32:38;;;;;;;;;;;12.50;50.10;;;12.68;52.67;100430.03;5047165;28;19928;-33
2023/12/14 06:35:07;;;;;;;;;;;12.50;50.10;;;12.69;53.00;100431.81;5052299;28;19932;-32
2023/12/14 06:37:35;;;;;;;;;;;12.50;50.10;;;12.67;52.90;100428.22;5052807;28;19928;-31
2023/12/14 06:40:04;;;;;;;;;;;12.50;50.10;;;12.69;53.40;100441.88;5052407;28;19931;-37
2023/12/14 06:42:33;;;;;;;;;;;12.50;50.10;;;12.67;53.23;100453.34;5052417;28;19929;-32
2023/12/14 06:45:03;;;;;;;;;;;12.50;50.10;;;12.67;52.95;100452.44;5052430;28;19931;-31
2023/12/14 06:47:31;;;;;;;;;;;12.50;50.10;;;12.62;52.69;100449.41;5052636;28;19964;-32
2023/12/14 06:49:59;;;;;;;;;;;12.50;50.10;;;12.66;52.92;100454.06;5052434;28;19925;-31
2023/12/14 06:52:27;;;;;;;;;;;12.40;50.10;;;12.67;53.62;100457.47;5052321;28;19925;-33
2023/12/14 06:54:55;;;;;;;;;;;12.50;50.10;;;12.64;53.21;100454.63;5051522;28;20015;-32
2023/12/14 06:57:23;;;;;;;;;;;12.50;50.10;;;12.66;53.56;100456.56;5052387;28;19931;-31
2023/12/14 06:59:55;;;;;;;;;;;12.50;50.10;;;12.65;52.89;100469.84;5052371;28;19932;-31
2023/12/14 07:02:23;;;;;;;;;;;12.50;50.10;;;12.64;52.95;100472.22;5052235;28;19925;-31
2023/12/14 07:04:51;;;;;;;;;;;12.50;50.10;;;12.64;53.39;100482.28;5052717;28;19929;-30
2023/12/14 07:07:19;;;;;;;;;;;12.50;50.00;;;12.62;53.50;100489.63;5052989;28;19929;-32
2023/12/14 07:09:48;;;;;;;;;;;12.50;50.00;;;12.58;53.05;100492.50;5053043;28;19929;-32
2023/12/14 07:12:16;;;;;;;;;;;12.50;50.00;;;12.61;52.84;100497.88;5052551;28;20023;-30
2023/12/14 07:14:44;;;;;;;;;;;12.50;50.00;;;12.59;53.37;100509.34;5051887;28;19971;-29
2023/12/14 07:17:13;;;;;;;;;;;12.50;50.10;;;12.59;52.49;100519.41;5052060;28;20012;-31
2023/12/14 07:19:41;;;;;;;;;;;12.50;50.10;;;12.58;52.95;100517.63;5051658;28;20388;-32
2023/12/14 07:22:09;;;;;;;;;;;12.40;50.00;;;12.56;52.92;100529.09;5051675;28;20019;-33
2023/12/14 07:24:37;;;;;;;;;;;12.40;50.10;;;12.51;53.36;100535.19;5051954;28;19925;-36
2023/12/14 07:27:19;;;;;;;;;;;12.40;50.10;;;12.54;53.12;100539.69;5052099;28;19929;-35
2023/12/14 07:29:47;;;;;;;;;;;12.40;50.20;;;12.52;53.71;100552.03;5051925;28;19983;-30
2023/12/14 07:32:16;;;;;;;;;;;12.30;50.10;;;12.50;53.28;100553.50;5051685;28;19972;-31
2023/12/14 07:34:45;;;;;;;;;;;12.30;50.20;;;12.50;53.24;100558.53;5051244;28;19971;-31
2023/12/14 07:37:13;;;;;;;;;;;12.40;50.30;;;12.50;53.07;100561.03;5051997;28;19963;-31
2023/12/14 07:39:41;;;;;;;;;;;12.30;50.20;;;12.50;53.27;100568.59;5051981;28;20395;-30
2023/12/14 07:42:09;;;;;;;;;;;12.30;50.30;;;12.49;53.45;100572.69;5051711;28;19979;-32
2023/12/14 07:44:37;;;;;;;;;;;12.30;50.30;;;12.49;53.07;100579.34;5051227;28;20307;-30
2023/12/14 07:47:05;;;;;;;;;;;12.30;50.20;;;12.50;53.08;100586.16;5051658;28;20467;-32
2023/12/14 07:49:34;;;;;;;;;;;12.40;50.30;;;12.51;53.07;100590.50;5052269;28;20308;-37
2023/12/14 07:52:02;;;;;;;;;;;12.30;50.20;;;12.52;53.25;100596.41;5051895;28;19924;-30
2023/12/14 07:54:30;;;;;;;;;;;12.30;50.20;;;12.49;53.13;100589.41;5051017;28;20451;-31
2023/12/14 07:56:58;;;;;;;;;;;12.30;50.20;;;12.53;53.01;100599.09;5051855;28;20372;-29
2023/12/14 07:59:26;;;;;;;;;;;12.40;50.20;;;12.54;53.78;100605.91;5051416;28;20464;-31
2023/12/14 08:01:54;;;;;;;;;;;12.40;50.20;;;12.55;53.57;100615.25;5051899;28;19925;-31
2023/12/14 08:04:23;;;;;;;;;;;12.40;50.20;;;12.57;53.37;100616.38;5051155;28;20388;-32
2023/12/14 08:06:52;;;;;;;;;;;12.40;50.10;;;12.56;52.59;100614.56;5051239;28;19925;-30
2023/12/14 08:09:20;;;;;;;;;;;12.40;50.10;;;12.58;53.07;100625.72;5051661;28;20011;-33
2023/12/14 08:11:48;;;;;;;;;;;12.40;50.10;;;12.57;53.53;100635.56;5051891;28;19929;-34
2023/12/14 08:14:16;;;;;;;;;;;12.40;50.10;;;12.60;53.59;100646.88;5051137;28;20015;-33
2023/12/14 08:16:44;;;;;;;;;;;12.40;50.10;;;12.58;52.96;100648.31;5050945;28;20373;-33
2023/12/14 08:19:12;;;;;;;;;;;12.40;50.00;;;12.61;53.32;100648.69;5051353;28;19931;-34
2023/12/14 08:21:40;;;;;;;;;;;12.40;50.00;;;12.62;53.71;100655.53;5051358;28;20435;-32
2023/12/14 08:24:10;;;;;;;;;;;12.40;50.00;;;12.60;53.39;100651.91;5051024;28;20307;-41
2023/12/14 08:26:38;;;;;;;;;;;12.40;50.00;;;12.61;52.26;100668.78;5050918;28;20027;-32
2023/12/14 08:29:06;;;;;;;;;;;12.40;49.90;;;12.59;52.68;100659.25;5051477;28;19979;-32
2023/12/14 08:31:33;;;;;;;;;;;12.50;50.00;;;12.63;52.85;100677.44;5051156;28;19932;-32
2023/12/14 08:34:03;;;;;;;;;;;12.40;49.90;;;12.63;53.61;100682.47;5054813;28;19929;-31
2023/12/14 08:36:31;;;;;;;;;;;12.50;50.00;;;12.63;52.73;100681.56;5054061;28;20344;-33
2023/12/14 08:38:59;;;;;;;;;;;12.40;49.90;;;12.61;52.23;100683.88;5054501;28;20024;-33
2023/12/14 08:41:28;;;;;;;;;;;12.40;49.90;;;12.60;52.75;100687.09;5054390;28;19964;-34
2023/12/14 08:43:56;;;;;;;;;;;12.40;49.90;;;12.61;52.68;100693.03;5054586;28;20379;-37
2023/12/14 08:46:24;;;;;;;;;;;12.40;49.90;;;12.61;53.20;100703.09;5054045;28;19941;-34
2023/12/14 08:48:52;;;;;;;;;;;12.40;49.90;;;12.60;53.63;100712.22;5054572;28;19964;-32
2023/12/14 08:51:21;;;;;;;;;;;12.40;49.90;;;12.61;52.74;100711.53;5054496;28;19925;-31
2023/12/14 08:53:49;;;;;;;;;;;12.40;49.90;;;12.63;52.99;100719.25;5054210;28;19968;-34
2023/12/14 08:56:16;;;;;;;;;;;12.50;49.90;;;12.63;52.96;100722.69;5053855;28;19987;-35
2023/12/14 08:58:46;;;;;;;;;;;12.50;49.90;;;12.52;52.57;100710.38;5054764;28;19948;-35
2023/12/14 09:01:20;;;;;;;;;;;12.40;49.80;;;12.60;53.11;100732.34;5054616;28;19924;-31
2023/12/14 09:03:49;;;;;;;;;;;12.40;49.80;;;12.61;53.07;100743.28;5055159;28;19929;-31
2023/12/14 09:06:17;;;;;;;;;;;12.50;49.90;;;12.59;52.66;100739.69;5054556;28;19925;-36
2023/12/14 09:08:45;;;;;;;;;;;12.40;49.80;;;12.55;53.39;100738.41;5054427;28;19995;-34
2023/12/14 09:11:15;;;;;;;;;;;12.40;49.80;;;12.57;52.67;100752.09;5053701;28;20396;-35
2023/12/14 09:13:43;;;;;;;;;;;12.40;49.80;;;12.56;53.34;100755.31;5054090;28;20369;-31
2023/12/14 09:16:12;;;;;;;;;;;12.40;49.80;;;12.54;52.76;100761.75;5053696;28;19925;-30
2023/12/14 09:18:40;;;;;;;;;;;12.40;49.90;;;12.53;53.14;100764.97;5046450;28;19932;-33
2023/12/14 09:21:08;;;;;;;;;;;12.40;49.90;;;12.52;52.42;100773.22;5054238;28;20007;-30
2023/12/14 09:23:36;;;;;;;;;;;12.30;49.80;;;12.48;52.63;100764.41;5054034;28;19925;-32
2023/12/14 09:26:04;;;;;;;;;;;12.40;50.00;;;12.48;52.36;100773.56;5053371;28;19960;-31
2023/12/14 09:28:32;;;;;;;;;;;12.30;49.90;;;12.48;52.65;100778.59;5053790;28;19932;-31
2023/12/14 09:31:01;;;;;;;;;;;12.30;49.90;;;12.47;52.54;100780.19;5050665;28;20360;-42
2023/12/14 09:33:32;;;;;;;;;;;12.30;50.00;;;12.46;53.42;100787.53;5053317;28;19961;-31
2023/12/14 09:36:00;;;;;;;;;;;12.30;50.00;;;12.45;52.98;100788.28;5053310;28;19929;-32
2023/12/14 09:38:28;;;;;;;;;;;12.30;50.00;;;12.44;53.24;100796.50;5053643;28;19924;-34
2023/12/14 09:40:56;;;;;;;;;;;12.30;50.00;;;12.44;53.10;100799.94;5092047;22;19924;-35
2023/12/14 09:43:24;;;;;;;;;;;12.30;50.00;;;12.41;53.35;100803.66;5092222;28;19924;-35
2023/12/14 09:45:52;;;;;;;;;;;12.30;50.00;;;12.44;52.80;100809.97;5092851;28;19928;-35
2023/12/14 09:48:20;;;;;;;;;;;12.30;50.00;;;12.39;53.17;100810.13;5093854;28;20015;-35
2023/12/14 09:50:49;;;;;;;;;;;12.30;50.00;;;12.45;52.24;100816.81;5088699;28;19960;-35
2023/12/14 09:53:18;;;;;;;;;;;12.30;49.90;;;12.48;52.35;100821.31;5073349;28;19924;-35
2023/12/14 09:55:46;;;;;;;;;;;12.30;49.90;;;12.47;52.71;100819.50;5072584;28;19932;-35
2023/12/14 09:58:15;;;;;;;;;;;12.30;49.90;;;12.48;52.63;100821.31;5072949;28;19971;-35
2023/12/14 10:00:43;;;;;;;;;;;12.30;49.90;;;12.48;53.07;100826.34;5073280;28;19977;-35
2023/12/14 10:03:22;;;;;;;;;;;12.30;49.90;;;12.48;52.88;100821.31;5072935;28;20399;-35
2023/12/14 10:05:54;;;;;;;;;;;12.30;49.90;;;12.50;52.28;100837.50;5066215;28;19928;-35
2023/12/14 10:08:22;;;;;;;;;;;12.30;49.80;;;12.51;52.05;100836.78;5072995;28;19924;-35
2023/12/14 10:10:52;;;;;;;;;;;12.30;49.80;;;12.51;52.91;100840.91;5072748;28;19924;-35
2023/12/14 10:13:36;;;;;;;;;;;12.30;49.80;;;12.51;53.40;100851.88;5073336;28;19943;-35
2023/12/14 10:16:04;;;;;;;;;;;12.30;49.80;;;12.53;52.71;100860.47;5072350;28;20452;-35
2023/12/14 10:18:34;;;;;;;;;;;12.30;49.70;;;12.53;52.74;100857.06;5072512;28;20015;-35
2023/12/14 10:21:04;;;;;;;;;;;12.40;49.80;;;12.52;52.53;100861.19;5072509;28;19925;-35
2023/12/14 10:23:31;;;;;;;;;;;12.40;49.80;;;12.55;52.19;100869.13;5072459;28;20314;-35
2023/12/14 10:25:59;;;;;;;;;;;12.40;49.80;;;12.50;52.53;100860.09;5071844;28;20379;-35
2023/12/14 10:28:28;;;;;;;;;;;12.40;49.70;;;12.55;52.89;100874.16;5072312;28;20384;-35
2023/12/14 10:30:55;;;;;;;;;;;12.30;49.70;;;12.56;52.82;100873.44;5072468;28;19924;-35
2023/12/14 10:33:23;;;;;;;;;;;12.40;49.70;;;12.56;52.70;100875.97;5072273;28;19924;-35
2023/12/14 10:35:51;;;;;;;;;;;12.40;49.70;;;12.57;53.07;100877.75;5071746;28;20058;-35
2023/12/14 10:38:21;;;;;;;;;;;12.40;49.70;;;12.58;53.06;100889.63;5072359;28;19928;-35
2023/12/14 10:40:49;;;;;;;;;;;12.40;49.70;;;12.56;53.04;100875.97;5072432;28;19924;-35
2023/12/14 10:43:17;;;;;;;;;;;12.40;49.60;;;12.62;52.74;100886.78;5072271;28;19925;-35
2023/12/14 10:46:06;;;;;;;;;;;12.40;49.60;;;12.62;52.83;100890.91;5071533;28;19931;-35
2023/12/14 10:48:35;;;;;;;;;;;12.50;49.60;;;12.61;52.37;100884.97;5072440;28;19931;-35
2023/12/14 10:51:05;;;;;;;;;;;12.40;49.50;;;12.62;52.35;100891.81;5072826;28;19978;-35
2023/12/14 10:53:34;;;;;;;;;;;12.40;49.50;;;12.62;52.25;100891.81;5072646;28;19974;-35
2023/12/14 10:56:06;;;;;;;;;;;12.50;49.60;;;12.63;52.61;100896.13;5073503;28;19935;-35
2023/12/14 10:58:46;;;;;;;;;;;12.50;49.60;;;12.63;52.35;100893.63;5071900;28;19933;-35
2023/12/14 11:01:15;;;;;;;;;;;12.40;49.50;;;12.60;52.33;100903.28;5072046;28;19932;-36
2023/12/14 11:03:43;;;;;;;;;;;12.40;50.10;;;12.60;52.27;100908.28;5063802;28;20015;-36
2023/12/14 11:06:32;;;;;;;;;;;12.50;49.60;;;12.59;52.50;100905.59;5071246;28;19978;-36
2023/12/14 11:09:05;;;;;;;;;;;12.40;49.50;;;12.58;52.45;100904.72;5060426;28;19929;-36
2023/12/14 11:11:41;;;;;;;;;;;12.40;49.60;;;12.55;52.41;100916.88;5071689;28;20362;-36
2023/12/14 11:14:09;;;;;;;;;;;12.40;49.60;;;12.54;52.91;100915.06;5071885;28;19966;-36
2023/12/14 11:16:44;;;;;;;;;;;12.40;49.60;;;12.53;52.24;100919.88;5070844;28;20342;-36
2023/12/14 11:19:29;;;;;;;;;;;12.30;49.50;;;12.53;52.70;100925.81;5071581;28;20391;-36